Time;durP1;ratioP1;P1;durP2;ratioP2;P2;SDS_P1;SDS_P2;PMS_P1;PMS_P2;Temp;Humidity;BMP_temperature;BMP_pressure;BME280_temperature;BME280_humidity;BME280_pressure;Samples;Min_cycle;Max_cycle;Signal;HPM_P1;HPM_P2
2023/03/18 00:00:10;;;;;;;;;;;;;;;6.72;64.29;100114.78;332756;29;5013;-72
2023/03/18 00:00:20;;;;;;;;;;;;;;;6.68;64.33;100113.13;328263;29;4058;-72
2023/03/18 00:00:31;;;;;;;;;;;;;;;6.65;64.18;100118.38;322128;30;3513;-72
2023/03/18 00:00:42;;;;;;;;;;;;;;;6.60;64.24;100115.00;323795;29;3357;-72
2023/03/18 00:00:57;;;;;;;;;;;;;;;6.58;64.29;100116.75;326466;29;6077;-72
2023/03/18 00:01:07;;;;;;;;;;;;;;;6.57;64.21;100121.09;326141;30;3901;-72
2023/03/18 00:01:18;;;;;;;;;;;;;;;6.58;64.27;100116.75;320487;30;4642;-71
2023/03/18 00:01:28;;;;;;;;;;;;;;;6.59;64.13;100115.88;323106;30;2356;-71
2023/03/18 00:01:38;;;;;;;;;;;;;;;6.60;64.45;100122.78;325837;30;1870;-71
2023/03/18 00:01:49;;;;;;;;;;;;;;;6.60;64.06;100120.19;323601;30;3740;-71
2023/03/18 00:02:00;;;;;;;;;;;;;;;6.55;64.20;100122.00;320155;30;5337;-71
2023/03/18 00:02:10;;;;;;;;;;;;;;;6.52;64.57;100122.06;316589;30;3914;-71
2023/03/18 00:02:21;;;;;;;;;;;;;;;6.50;64.33;100123.84;313692;31;3037;-72
2023/03/18 00:02:32;;;;;;;;;;;;;;;6.49;64.34;100117.78;317416;30;3948;-73
2023/03/18 00:02:42;;;;;;;;;;;;;;;6.50;64.40;100116.06;316373;31;5403;-73
2023/03/18 00:02:52;;;;;;;;;;;;;;;6.51;64.04;100120.34;313507;31;4204;-73
2023/03/18 00:03:03;;;;;;;;;;;;;;;6.52;64.22;100116.84;313181;31;7928;-73
2023/03/18 00:03:13;;;;;;;;;;;;;;;6.50;64.21;100119.47;313187;31;4802;-72
2023/03/18 00:03:24;;;;;;;;;;;;;;;6.46;64.07;100114.38;315426;31;1342;-72
2023/03/18 00:03:36;;;;;;;;;;;;;;;6.45;64.20;100115.28;315670;31;4511;-72
2023/03/18 00:03:46;;;;;;;;;;;;;;;6.48;64.54;100115.22;313906;31;4604;-72
2023/03/18 00:03:56;;;;;;;;;;;;;;;6.49;64.55;100116.94;315678;31;3182;-72
2023/03/18 00:04:06;;;;;;;;;;;;;;;6.47;64.47;100116.97;314453;31;767;-72
2023/03/18 00:04:17;;;;;;;;;;;;;;;6.48;64.18;100121.28;317604;30;4094;-72
2023/03/18 00:04:27;;;;;;;;;;;;;;;6.49;63.98;100117.78;315954;31;5341;-72
2023/03/18 00:04:39;;;;;;;;;;;;;;;6.45;64.42;100121.31;313510;31;5168;-72
2023/03/18 00:04:50;;;;;;;;;;;;;;;6.36;64.52;100120.59;310064;31;5463;-73
2023/03/18 00:05:00;;;;;;;;;;;;;;;6.37;64.62;100117.13;310880;31;6593;-72
2023/03/18 00:05:11;;;;;;;;;;;;;;;6.40;64.53;100111.88;312721;31;2221;-72
2023/03/18 00:05:21;;;;;;;;;;;;;;;6.40;64.66;100117.06;306144;32;4462;-72
2023/03/18 00:05:33;;;;;;;;;;;;;;;6.42;64.42;100110.13;305996;31;6648;-72
2023/03/18 00:05:43;;;;;;;;;;;;;;;6.44;64.49;100113.56;305951;31;6803;-72
2023/03/18 00:06:01;;;;;;;;;;;;;;;6.46;64.47;100120.44;308902;32;871;-72
2023/03/18 00:06:12;;;;;;;;;;;;;;;6.46;64.71;100111.78;304001;32;5247;-73
2023/03/18 00:06:22;;;;;;;;;;;;;;;6.46;64.52;100122.19;303441;32;1210;-73
2023/03/18 00:06:34;;;;;;;;;;;;;;;6.45;64.37;100117.88;301221;32;6247;-72
2023/03/18 00:06:44;;;;;;;;;;;;;;;6.48;64.70;100115.22;297010;32;7015;-72
2023/03/18 00:06:55;;;;;;;;;;;;;;;6.48;64.58;100121.28;296592;33;4457;-72
2023/03/18 00:07:06;;;;;;;;;;;;;;;6.49;64.29;100124.75;295428;33;1302;-72
2023/03/18 00:07:16;;;;;;;;;;;;;;;6.49;64.47;100124.75;292613;33;8863;-72
2023/03/18 00:07:26;;;;;;;;;;;;;;;6.50;64.33;100118.66;292545;33;9596;-72
2023/03/18 00:07:37;;;;;;;;;;;;;;;6.49;64.30;100117.78;288244;34;4695;-72
2023/03/18 00:07:49;;;;;;;;;;;;;;;6.49;64.12;100116.94;289279;33;9734;-72
2023/03/18 00:08:00;;;;;;;;;;;;;;;6.47;64.30;100118.69;288809;33;9765;-72
2023/03/18 00:09:32;;;;;;;;;;;;;;;6.38;65.01;100113.66;2488432;27;19941;-72
2023/03/18 00:09:43;;;;;;;;;;;;;;;6.38;64.92;100108.44;352623;27;4943;-72
2023/03/18 00:09:53;;;;;;;;;;;;;;;6.38;65.16;100114.50;353479;28;902;-72
2023/03/18 00:10:03;;;;;;;;;;;;;;;6.37;64.98;100114.53;350587;28;1776;-72
2023/03/18 00:10:15;;;;;;;;;;;;;;;6.38;64.58;100119.69;349103;28;2091;-72
2023/03/18 00:10:25;;;;;;;;;;;;;;;6.36;64.83;100105.88;347142;28;4685;-72
2023/03/18 00:10:36;;;;;;;;;;;;;;;6.36;65.04;100110.22;350743;28;780;-72
2023/03/18 00:10:46;;;;;;;;;;;;;;;6.33;64.58;100119.78;349146;28;1248;-72
2023/03/18 00:10:56;;;;;;;;;;;;;;;6.26;64.88;100115.53;348591;28;1423;-72
2023/03/18 00:11:07;;;;;;;;;;;;;;;6.19;65.24;100110.47;347288;28;3122;-72
2023/03/18 00:11:18;;;;;;;;;;;;;;;6.12;65.26;100112.28;353017;28;5294;-72
2023/03/18 00:11:29;;;;;;;;;;;;;;;6.08;65.74;100104.56;351279;27;4850;-72
2023/03/18 00:11:40;;;;;;;;;;;;;;;6.09;65.60;100106.28;352857;28;1697;-72
2023/03/18 00:11:51;;;;;;;;;;;;;;;6.06;65.75;100117.59;353525;28;839;-72
2023/03/18 00:12:01;;;;;;;;;;;;;;;6.06;65.83;100102.03;351981;28;867;-72
2023/03/18 00:12:11;;;;;;;;;;;;;;;6.07;65.61;100103.69;348855;28;4496;-72
2023/03/18 00:12:22;;;;;;;;;;;;;;;6.07;65.59;100111.50;349152;28;5009;-72
2023/03/18 00:12:33;;;;;;;;;;;;;;;6.09;65.71;100107.13;347656;28;3330;-72
2023/03/18 00:12:43;;;;;;;;;;;;;;;6.11;65.75;100105.38;346748;28;5323;-72
2023/03/18 00:12:54;;;;;;;;;;;;;;;6.14;65.37;100105.34;349190;28;1214;-73
2023/03/18 00:13:04;;;;;;;;;;;;;;;6.15;65.39;100109.66;347723;28;1199;-72
2023/03/18 00:13:14;;;;;;;;;;;;;;;6.14;65.75;100107.06;348973;28;1302;-72
2023/03/18 00:13:25;;;;;;;;;;;;;;;6.11;65.29;100102.78;346103;28;4654;-72
2023/03/18 00:13:35;;;;;;;;;;;;;;;6.10;65.76;100106.25;349038;28;5479;-73
2023/03/18 00:13:46;;;;;;;;;;;;;;;6.09;65.72;100107.13;347734;28;1207;-73
2023/03/18 00:13:57;;;;;;;;;;;;;;;6.10;65.44;100108.00;349093;28;1242;-73
2023/03/18 00:14:08;;;;;;;;;;;;;;;6.11;65.45;100105.38;347880;28;2932;-73
2023/03/18 00:14:19;;;;;;;;;;;;;;;6.11;65.64;100102.78;348680;28;3155;-73
2023/03/18 00:14:30;;;;;;;;;;;;;;;6.13;65.38;100107.94;350628;28;929;-73
2023/03/18 00:14:40;;;;;;;;;;;;;;;6.11;65.78;100105.38;347982;28;886;-73
2023/03/18 00:14:51;;;;;;;;;;;;;;;6.11;65.71;100105.38;347843;28;896;-73
2023/03/18 00:15:01;;;;;;;;;;;;;;;6.09;65.23;100107.13;349042;28;4854;-73
2023/03/18 00:15:12;;;;;;;;;;;;;;;6.08;65.50;100105.41;349280;28;3187;-73
2023/03/18 00:15:22;;;;;;;;;;;;;;;6.08;65.40;100101.97;346190;28;1180;-73
2023/03/18 00:15:32;;;;;;;;;;;;;;;6.11;65.62;100107.13;341774;28;1721;-72
2023/03/18 00:15:42;;;;;;;;;;;;;;;6.12;65.68;100101.91;344891;28;3934;-73
2023/03/18 00:15:53;;;;;;;;;;;;;;;6.14;65.79;100107.06;344641;28;1320;-73
2023/03/18 00:16:03;;;;;;;;;;;;;;;6.13;65.13;100103.63;346556;28;789;-73
2023/03/18 00:16:13;;;;;;;;;;;;;;;6.15;65.16;100104.44;345991;28;1212;-73
2023/03/18 00:16:24;;;;;;;;;;;;;;;6.17;64.94;100105.28;346421;28;837;-73
2023/03/18 00:16:35;;;;;;;;;;;;;;;6.17;65.16;100110.47;344602;28;4133;-73
2023/03/18 00:16:45;;;;;;;;;;;;;;;6.15;65.17;100101.00;345216;28;901;-73
2023/03/18 00:16:56;;;;;;;;;;;;;;;6.13;65.65;100102.75;344267;28;1300;-73
2023/03/18 00:17:06;;;;;;;;;;;;;;;6.09;65.43;100101.94;345219;28;849;-73
2023/03/18 00:17:17;;;;;;;;;;;;;;;6.10;65.50;100103.66;339502;28;4920;-72
2023/03/18 00:17:27;;;;;;;;;;;;;;;6.08;65.05;100102.81;339941;28;1951;-72
2023/03/18 00:17:39;;;;;;;;;;;;;;;6.09;65.17;100107.13;339853;28;1543;-72
2023/03/18 00:17:49;;;;;;;;;;;;;;;6.06;65.46;100101.16;341192;29;864;-72
2023/03/18 00:17:59;;;;;;;;;;;;;;;6.04;65.43;100102.91;338098;28;3699;-72
2023/03/18 00:18:10;;;;;;;;;;;;;;;6.03;65.33;100101.19;340995;28;1634;-72
2023/03/18 00:18:20;;;;;;;;;;;;;;;6.01;65.66;100098.63;342372;28;1970;-73
2023/03/18 00:18:31;;;;;;;;;;;;;;;6.00;65.76;100112.50;341003;28;1432;-72
2023/03/18 00:18:41;;;;;;;;;;;;;;;6.01;65.72;100109.00;336595;29;5083;-72
2023/03/18 00:18:52;;;;;;;;;;;;;;;6.03;65.43;100104.66;338340;29;1227;-72
2023/03/18 00:19:03;;;;;;;;;;;;;;;6.06;65.30;100098.56;338435;29;1239;-72
2023/03/18 00:19:13;;;;;;;;;;;;;;;6.08;65.85;100097.63;338129;29;1708;-72
2023/03/18 00:19:24;;;;;;;;;;;;;;;6.10;65.57;100103.66;334113;29;4028;-72
2023/03/18 00:19:34;;;;;;;;;;;;;;;6.11;65.28;100102.78;331854;29;1379;-74
2023/03/18 00:19:44;;;;;;;;;;;;;;;6.10;65.57;100098.47;333706;29;1724;-73
2023/03/18 00:19:54;;;;;;;;;;;;;;;6.09;65.25;100094.16;334724;29;1833;-73
2023/03/18 00:20:05;;;;;;;;;;;;;;;6.08;65.77;100097.63;332489;29;4476;-73
2023/03/18 00:20:17;;;;;;;;;;;;;;;6.08;65.45;100097.63;334767;29;5030;-73
2023/03/18 00:20:37;;;;;;;;;;;;;;;6.07;65.58;100098.50;333644;29;2118;-73
2023/03/18 00:20:47;;;;;;;;;;;;;;;6.10;65.30;100101.06;332710;29;2492;-73
2023/03/18 00:20:59;;;;;;;;;;;;;;;6.13;64.95;100101.00;329397;29;5216;-73
2023/03/18 00:21:11;;;;;;;;;;;;;;;6.14;65.16;100100.13;332377;29;1525;-72
2023/03/18 00:21:22;;;;;;;;;;;;;;;6.15;65.30;100101.84;333273;29;1005;-72
2023/03/18 00:21:33;;;;;;;;;;;;;;;6.17;65.24;100105.28;330584;29;8680;-72
2023/03/18 00:21:43;;;;;;;;;;;;;;;6.19;64.97;100103.53;327169;29;5003;-72
2023/03/18 00:21:54;;;;;;;;;;;;;;;6.21;65.15;100100.91;329895;29;2368;-72
2023/03/18 00:22:04;;;;;;;;;;;;;;;6.23;64.80;100100.00;333364;29;902;-72
2023/03/18 00:22:15;;;;;;;;;;;;;;;6.23;64.78;100105.19;326884;29;2428;-72
2023/03/18 00:22:25;;;;;;;;;;;;;;;6.25;64.78;100102.56;325253;29;3166;-71
2023/03/18 00:22:36;;;;;;;;;;;;;;;6.26;64.80;100097.34;329170;29;5492;-71
2023/03/18 00:22:46;;;;;;;;;;;;;;;6.27;65.14;100096.47;331892;29;2703;-71
2023/03/18 00:22:56;;;;;;;;;;;;;;;6.29;64.66;100105.09;328978;29;1954;-71
2023/03/18 00:23:07;;;;;;;;;;;;;;;6.31;64.69;100103.34;328425;30;3796;-72
2023/03/18 00:23:17;;;;;;;;;;;;;;;6.31;65.02;100098.16;325995;30;4656;-72
2023/03/18 00:23:27;;;;;;;;;;;;;;;6.32;64.66;100105.06;326799;30;1977;-72
2023/03/18 00:23:38;;;;;;;;;;;;;;;6.34;64.83;100107.63;325176;30;2276;-72
2023/03/18 00:23:49;;;;;;;;;;;;;;;6.34;65.29;100097.25;322304;30;1291;-72
2023/03/18 00:23:59;;;;;;;;;;;;;;;6.36;64.96;100105.88;319698;30;4456;-72
2023/03/18 00:24:11;;;;;;;;;;;;;;;6.37;64.87;100102.38;316903;31;3469;-72
2023/03/18 00:24:21;;;;;;;;;;;;;;;6.39;65.19;100104.97;315514;31;855;-72
2023/03/18 00:24:31;;;;;;;;;;;;;;;6.39;64.47;100099.78;318223;30;3937;-72
2023/03/18 00:24:41;;;;;;;;;;;;;;;6.39;64.64;100098.03;317024;30;3566;-72
2023/03/18 00:24:52;;;;;;;;;;;;;;;6.40;64.46;100102.34;318709;30;3404;-72
2023/03/18 00:25:02;;;;;;;;;;;;;;;6.41;64.69;100103.19;316141;31;2640;-73
2023/03/18 00:25:13;;;;;;;;;;;;;;;6.42;65.10;100099.72;317475;31;2496;-73
2023/03/18 00:25:23;;;;;;;;;;;;;;;6.43;64.95;100096.25;317680;30;2174;-73
2023/03/18 00:25:34;;;;;;;;;;;;;;;6.44;65.11;100097.94;318399;30;3042;-72
2023/03/18 00:25:48;;;;;;;;;;;;;;;6.45;65.23;100099.66;319080;30;2935;-72
2023/03/18 00:25:59;;;;;;;;;;;;;;;6.45;65.06;100102.28;318201;31;3388;-73
2023/03/18 00:26:10;;;;;;;;;;;;;;;6.46;65.18;100102.25;313477;31;4745;-73
2023/03/18 00:26:21;;;;;;;;;;;;;;;6.46;65.12;100098.78;309068;31;4481;-72
2023/03/18 00:26:31;;;;;;;;;;;;;;;6.47;65.00;100097.91;309069;31;4308;-72
2023/03/18 00:26:42;;;;;;;;;;;;;;;6.48;65.31;100097.88;308238;31;4257;-72
2023/03/18 00:26:53;;;;;;;;;;;;;;;6.49;64.90;100101.34;307306;31;4713;-72
2023/03/18 00:27:03;;;;;;;;;;;;;;;6.49;64.93;100101.34;306435;31;5092;-72
2023/03/18 00:27:13;;;;;;;;;;;;;;;6.48;64.92;100104.81;306658;32;4726;-72
2023/03/18 00:27:23;;;;;;;;;;;;;;;6.49;64.81;100101.34;304645;32;3443;-72
2023/03/18 00:27:34;;;;;;;;;;;;;;;6.49;64.65;100104.78;304566;32;879;-72
2023/03/18 00:27:45;;;;;;;;;;;;;;;6.50;64.88;100103.06;305833;32;3569;-73
2023/03/18 00:27:55;;;;;;;;;;;;;;;6.50;65.42;100100.47;300945;32;5630;-72
2023/03/18 00:28:05;;;;;;;;;;;;;;;6.51;64.97;100104.75;301427;32;1204;-72
2023/03/18 00:28:16;;;;;;;;;;;;;;;6.50;65.24;100098.69;300314;32;5207;-73
2023/03/18 00:28:26;;;;;;;;;;;;;;;6.51;65.05;100096.94;299890;32;5595;-73
2023/03/18 00:28:36;;;;;;;;;;;;;;;6.52;64.74;100106.47;294635;33;3977;-72
2023/03/18 00:28:47;;;;;;;;;;;;;;;6.52;65.04;100102.13;292971;33;3344;-73
2023/03/18 00:28:57;;;;;;;;;;;;;;;6.52;64.74;100102.13;291454;33;6428;-73
2023/03/18 00:29:08;;;;;;;;;;;;;;;6.52;65.18;100102.13;290427;33;6239;-72
2023/03/18 00:29:18;;;;;;;;;;;;;;;6.54;64.94;100104.69;293170;33;2475;-73
2023/03/18 00:29:29;;;;;;;;;;;;;;;6.52;65.38;100104.72;290310;33;6832;-72
2023/03/18 00:29:40;;;;;;;;;;;;;;;6.53;64.92;100102.97;291744;33;4980;-72
2023/03/18 00:29:50;;;;;;;;;;;;;;;6.52;64.58;100090.84;293461;33;887;-73
2023/03/18 00:30:01;;;;;;;;;;;;;;;6.53;64.56;100102.97;289564;33;6792;-73
2023/03/18 00:30:11;;;;;;;;;;;;;;;6.52;64.43;100094.31;285075;34;7104;-72
2023/03/18 00:30:22;;;;;;;;;;;;;;;6.51;64.72;100100.41;288500;34;1058;-72
2023/03/18 00:30:33;;;;;;;;;;;;;;;6.52;64.30;100103.84;282961;34;1478;-73
2023/03/18 00:30:43;;;;;;;;;;;;;;;6.52;64.50;100106.47;285236;34;8029;-72
2023/03/18 00:30:55;;;;;;;;;;;;;;;6.52;64.27;100109.06;282902;34;8513;-72
2023/03/18 00:31:07;;;;;;;;;;;;;;;6.50;64.89;100098.69;284553;34;865;-72
2023/03/18 00:31:18;;;;;;;;;;;;;;;6.50;64.66;100103.88;283873;34;881;-72
2023/03/18 00:31:28;;;;;;;;;;;;;;;6.49;64.79;100101.34;280006;35;8680;-72
2023/03/18 00:31:39;;;;;;;;;;;;;;;6.48;64.73;100103.09;275936;35;10282;-72
2023/03/18 00:31:49;;;;;;;;;;;;;;;6.49;65.03;100109.13;274205;36;7394;-72
2023/03/18 00:31:59;;;;;;;;;;;;;;;6.48;64.88;100103.09;276019;35;6942;-72
2023/03/18 00:32:10;;;;;;;;;;;;;;;6.49;65.01;100103.94;275256;35;7882;-72
2023/03/18 00:32:21;;;;;;;;;;;;;;;6.49;64.79;100096.13;274066;35;3711;-72
2023/03/18 00:34:34;;;;;;;;;;;;;;;6.46;64.78;100097.03;2502232;27;19923;-73
2023/03/18 00:34:45;;;;;;;;;;;;;;;6.45;64.81;100103.13;355274;27;2621;-73
2023/03/18 00:34:55;;;;;;;;;;;;;;;6.46;64.88;100098.78;351308;28;4745;-72
2023/03/18 00:35:06;;;;;;;;;;;;;;;6.47;64.66;100100.50;352132;28;1176;-71
2023/03/18 00:35:16;;;;;;;;;;;;;;;6.47;65.07;100098.75;353522;28;792;-72
2023/03/18 00:35:29;;;;;;;;;;;;;;;6.48;65.11;100104.81;352177;28;881;-72
2023/03/18 00:35:39;;;;;;;;;;;;;;;6.49;65.63;100106.53;347957;28;5027;-72
2023/03/18 00:35:49;;;;;;;;;;;;;;;6.51;65.42;100099.53;349285;28;1140;-72
2023/03/18 00:36:00;;;;;;;;;;;;;;;6.49;64.75;100101.34;347919;28;871;-72
2023/03/18 00:36:12;;;;;;;;;;;;;;;6.50;64.97;100100.47;347763;28;950;-72
2023/03/18 00:36:25;;;;;;;;;;;;;;;6.50;65.00;100097.84;347268;28;3925;-71
2023/03/18 00:36:35;;;;;;;;;;;;;;;6.50;64.59;100098.69;349993;28;1902;-72
2023/03/18 00:36:48;;;;;;;;;;;;;;;6.49;65.07;100090.94;351844;28;1662;-72
2023/03/18 00:36:59;;;;;;;;;;;;;;;6.49;64.41;100096.13;348782;28;3978;-72
2023/03/18 00:37:09;;;;;;;;;;;;;;;6.48;64.45;100100.47;347925;28;3042;-71
2023/03/18 00:37:29;;;;;;;;;;;;;;;6.48;65.03;100100.47;349031;28;1290;-71
2023/03/18 00:37:39;;;;;;;;;;;;;;;6.44;64.69;100093.63;350711;28;827;-72
2023/03/18 00:37:49;;;;;;;;;;;;;;;6.45;64.91;100102.28;349625;28;4461;-71
2023/03/18 00:38:02;;;;;;;;;;;;;;;6.44;64.82;100092.75;350319;28;1199;-71
2023/03/18 00:38:19;;;;;;;;;;;;;;;6.43;64.95;100097.09;350161;28;1380;-74
2023/03/18 00:38:30;;;;;;;;;;;;;;;6.44;64.50;100095.34;348702;28;1379;-73
2023/03/18 00:38:41;;;;;;;;;;;;;;;6.43;64.83;100096.25;346841;28;3000;-70
2023/03/18 00:38:56;;;;;;;;;;;;;;;6.43;64.52;100096.25;349340;28;965;-72
2023/03/18 00:39:08;;;;;;;;;;;;;;;6.42;64.66;100095.38;347779;28;1881;-71
2023/03/18 00:39:24;;;;;;;;;;;;;;;6.43;65.01;100093.63;347691;28;3486;-71
2023/03/18 00:39:36;;;;;;;;;;;;;;;6.43;64.57;100089.28;347322;28;2964;-73
2023/03/18 00:39:46;;;;;;;;;;;;;;;6.44;64.86;100092.75;346384;28;1598;-73
2023/03/18 00:39:57;;;;;;;;;;;;;;;6.46;64.40;100091.00;347016;28;870;-73
2023/03/18 00:40:09;;;;;;;;;;;;;;;6.45;64.48;100094.47;344282;28;2846;-72
2023/03/18 00:40:26;;;;;;;;;;;;;;;6.45;64.12;100094.47;345148;28;3508;-72
2023/03/18 00:40:51;;;;;;;;;;;;;;;6.44;64.09;100092.75;346427;28;1229;-72
2023/03/18 00:41:10;;;;;;;;;;;;;;;6.45;64.35;100090.13;342825;28;4792;-72
2023/03/18 00:41:20;;;;;;;;;;;;;;;6.45;64.44;100089.28;339830;29;775;-72
2023/03/18 00:41:32;;;;;;;;;;;;;;;6.47;64.42;100092.69;341862;28;1271;-72
2023/03/18 00:41:42;;;;;;;;;;;;;;;6.47;64.37;100085.75;342799;28;4168;-72
2023/03/18 00:41:55;;;;;;;;;;;;;;;6.47;64.53;100092.69;344195;28;4689;-71
2023/03/18 00:42:09;;;;;;;;;;;;;;;6.47;64.57;100088.38;342377;28;1276;-71
2023/03/18 00:42:19;;;;;;;;;;;;;;;6.48;65.16;100084.88;343675;28;1384;-72
2023/03/18 00:42:36;;;;;;;;;;;;;;;6.50;65.42;100084.84;338877;28;3174;-72
2023/03/18 00:42:46;;;;;;;;;;;;;;;6.51;65.49;100083.94;338126;29;1404;-72
2023/03/18 00:43:06;;;;;;;;;;;;;;;6.52;65.29;100088.25;335745;29;1194;-72
2023/03/18 00:43:16;;;;;;;;;;;;;;;6.51;64.65;100089.13;332695;29;4991;-72
2023/03/18 00:43:28;;;;;;;;;;;;;;;6.51;65.19;100091.75;337462;29;3454;-72
2023/03/18 00:43:45;;;;;;;;;;;;;;;6.51;64.64;100086.53;338436;29;873;-72
2023/03/18 00:43:55;;;;;;;;;;;;;;;6.51;64.64;100084.81;336250;29;2175;-72
2023/03/18 00:44:06;;;;;;;;;;;;;;;6.52;65.01;100090.84;335552;29;4819;-72
2023/03/18 00:44:16;;;;;;;;;;;;;;;6.51;64.57;100079.59;336926;29;1644;-73
2023/03/18 00:44:26;;;;;;;;;;;;;;;6.51;64.80;100079.59;335639;29;1598;-73
2023/03/18 00:44:37;;;;;;;;;;;;;;;6.51;64.67;100082.19;335995;29;853;-72
2023/03/18 00:44:47;;;;;;;;;;;;;;;6.51;64.77;100083.94;329902;29;4254;-72
2023/03/18 00:44:57;;;;;;;;;;;;;;;6.53;64.47;100087.38;330842;29;5266;-72
2023/03/18 00:45:09;;;;;;;;;;;;;;;6.52;64.63;100088.25;333490;29;871;-72
2023/03/18 00:45:20;;;;;;;;;;;;;;;6.52;64.65;100091.72;325888;30;1361;-72
2023/03/18 00:45:30;;;;;;;;;;;;;;;6.52;64.46;100085.66;323034;30;2165;-72
2023/03/18 00:45:41;;;;;;;;;;;;;;;6.51;64.88;100084.81;322152;30;4823;-72
2023/03/18 00:45:51;;;;;;;;;;;;;;;6.51;64.89;100084.81;324867;30;824;-72
2023/03/18 00:46:02;;;;;;;;;;;;;;;6.51;64.83;100084.81;325689;30;865;-72
2023/03/18 00:46:16;;;;;;;;;;;;;;;6.52;64.84;100088.25;324756;30;1830;-72
2023/03/18 00:46:28;;;;;;;;;;;;;;;6.53;64.54;100087.38;322730;30;5221;-72
2023/03/18 00:46:38;;;;;;;;;;;;;;;6.52;64.51;100085.66;321897;30;2329;-72
2023/03/18 00:46:48;;;;;;;;;;;;;;;6.51;64.71;100082.19;317731;31;1203;-72
2023/03/18 00:46:58;;;;;;;;;;;;;;;6.51;64.68;100086.53;317878;30;2225;-72
2023/03/18 00:47:08;;;;;;;;;;;;;;;6.51;64.62;100089.13;314225;31;4396;-72
2023/03/18 00:47:20;;;;;;;;;;;;;;;6.51;64.62;100089.13;317022;31;1495;-72
2023/03/18 00:47:30;;;;;;;;;;;;;;;6.50;65.28;100082.25;319833;30;2570;-72
2023/03/18 00:47:41;;;;;;;;;;;;;;;6.49;65.52;100090.94;320932;30;2792;-72
2023/03/18 00:47:51;;;;;;;;;;;;;;;6.48;65.11;100084.03;317821;30;4769;-73
2023/03/18 00:48:02;;;;;;;;;;;;;;;6.49;65.33;100091.78;317954;31;3135;-73
2023/03/18 00:48:13;;;;;;;;;;;;;;;6.49;65.46;100096.13;319116;30;1471;-71
2023/03/18 00:48:23;;;;;;;;;;;;;;;6.48;65.44;100086.63;320756;30;2194;-72
2023/03/18 00:48:33;;;;;;;;;;;;;;;6.48;65.66;100094.41;320092;30;813;-72
2023/03/18 00:48:44;;;;;;;;;;;;;;;6.48;65.42;100084.03;314214;30;5224;-72
2023/03/18 00:48:55;;;;;;;;;;;;;;;6.48;66.25;100084.03;314670;31;5415;-73
2023/03/18 00:49:05;;;;;;;;;;;;;;;6.48;65.75;100086.63;315515;31;1250;-71
2023/03/18 00:49:16;;;;;;;;;;;;;;;6.49;66.22;100096.13;319217;30;2889;-71
2023/03/18 00:49:26;;;;;;;;;;;;;;;6.49;66.37;100084.00;314059;31;4090;-71
2023/03/18 00:49:37;;;;;;;;;;;;;;;6.49;66.50;100080.53;312984;31;5245;-72
2023/03/18 00:49:47;;;;;;;;;;;;;;;6.49;66.49;100089.19;315941;31;3524;-72
2023/03/18 00:49:57;;;;;;;;;;;;;;;6.49;66.90;100086.59;313451;31;3351;-72
2023/03/18 00:50:08;;;;;;;;;;;;;;;6.49;67.04;100086.59;310991;31;1237;-72
2023/03/18 00:50:18;;;;;;;;;;;;;;;6.48;66.97;100089.22;306607;31;4984;-72
2023/03/18 00:50:29;;;;;;;;;;;;;;;6.48;66.69;100086.63;309002;31;2296;-72
2023/03/18 00:50:40;;;;;;;;;;;;;;;6.47;66.94;100083.16;307150;32;2918;-72
2023/03/18 00:50:50;;;;;;;;;;;;;;;6.47;67.12;100087.50;306670;32;785;-72
2023/03/18 00:51:00;;;;;;;;;;;;;;;6.47;67.19;100092.69;305978;31;3615;-72
2023/03/18 00:51:13;;;;;;;;;;;;;;;6.45;67.39;100082.34;307325;32;4333;-72
2023/03/18 00:51:23;;;;;;;;;;;;;;;6.45;67.68;100084.06;307719;32;3645;-72
2023/03/18 00:51:34;;;;;;;;;;;;;;;6.45;67.58;100086.66;302012;32;1814;-72
2023/03/18 00:51:44;;;;;;;;;;;;;;;6.45;67.86;100084.06;299533;32;4308;-72
2023/03/18 00:51:54;;;;;;;;;;;;;;;6.47;67.56;100087.50;296022;32;5691;-72
2023/03/18 00:52:05;;;;;;;;;;;;;;;6.45;67.53;100081.47;299395;33;720;-72
2023/03/18 00:52:15;;;;;;;;;;;;;;;6.45;67.80;100089.28;298400;33;4684;-72
2023/03/18 00:52:26;;;;;;;;;;;;;;;6.44;67.53;100088.41;298547;33;3485;-72
2023/03/18 00:52:36;;;;;;;;;;;;;;;6.45;67.64;100081.47;296319;33;5129;-71
2023/03/18 00:52:47;;;;;;;;;;;;;;;6.44;67.92;100077.16;298560;33;3055;-71
2023/03/18 00:52:58;;;;;;;;;;;;;;;6.45;67.94;100086.66;299593;32;4507;-71
2023/03/18 00:53:08;;;;;;;;;;;;;;;6.46;67.75;100081.44;298523;33;5324;-71
2023/03/18 00:53:18;;;;;;;;;;;;;;;6.45;68.00;100084.06;294176;33;5523;-71
2023/03/18 00:53:29;;;;;;;;;;;;;;;6.46;68.03;100085.78;293684;33;5622;-71
2023/03/18 00:53:40;;;;;;;;;;;;;;;6.46;67.92;100081.44;296835;33;5387;-71
2023/03/18 00:53:51;;;;;;;;;;;;;;;6.45;68.53;100078.88;297326;33;938;-73
2023/03/18 00:54:05;;;;;;;;;;;;;;;6.45;68.47;100079.72;294929;33;6011;-73
2023/03/18 00:54:18;;;;;;;;;;;;;;;6.45;68.50;100078.88;296091;33;6485;-73
2023/03/18 00:54:29;;;;;;;;;;;;;;;6.45;68.41;100086.66;296942;33;6478;-73
2023/03/18 00:54:39;;;;;;;;;;;;;;;6.45;68.43;100081.47;295416;33;4974;-73
2023/03/18 00:54:49;;;;;;;;;;;;;;;6.45;68.31;100078.88;296529;33;3866;-73
2023/03/18 00:55:00;;;;;;;;;;;;;;;6.45;68.73;100084.06;289649;33;5702;-73
2023/03/18 00:55:11;;;;;;;;;;;;;;;6.44;68.54;100078.00;287937;34;6868;-72
2023/03/18 00:55:21;;;;;;;;;;;;;;;6.45;68.87;100084.94;289603;34;800;-72
2023/03/18 00:55:31;;;;;;;;;;;;;;;6.45;68.61;100084.06;288321;34;8043;-73
2023/03/18 00:55:41;;;;;;;;;;;;;;;6.46;68.90;100080.59;285569;33;7924;-71
2023/03/18 00:55:52;;;;;;;;;;;;;;;6.45;68.39;100076.28;291457;34;1265;-72
2023/03/18 00:56:04;;;;;;;;;;;;;;;6.45;68.29;100078.88;289950;34;7605;-72
2023/03/18 00:56:15;;;;;;;;;;;;;;;6.44;68.36;100079.75;291199;33;8386;-72
2023/03/18 00:56:25;;;;;;;;;;;;;;;6.45;68.60;100073.66;287492;34;9549;-72
2023/03/18 00:56:39;;;;;;;;;;;;;;;6.45;68.61;100076.28;287335;34;5223;-72
2023/03/18 00:56:49;;;;;;;;;;;;;;;6.45;68.40;100081.47;286616;34;1396;-72
2023/03/18 00:58:29;;;;;;;;;;;;;;;6.46;69.99;100075.38;2491999;27;19937;-72
2023/03/18 00:58:39;;;;;;;;;;;;;;;6.47;70.07;100079.72;352686;28;2559;-72
2023/03/18 00:58:51;;;;;;;;;;;;;;;6.45;70.37;100079.72;350303;28;4642;-73
2023/03/18 00:59:01;;;;;;;;;;;;;;;6.45;70.03;100081.47;350182;28;1534;-72
2023/03/18 00:59:12;;;;;;;;;;;;;;;6.44;70.32;100087.56;348911;28;1449;-72
2023/03/18 00:59:22;;;;;;;;;;;;;;;6.43;70.14;100080.63;347784;28;1204;-72
2023/03/18 00:59:33;;;;;;;;;;;;;;;6.43;70.33;100076.28;345703;28;5020;-71
2023/03/18 00:59:43;;;;;;;;;;;;;;;6.42;70.40;100074.59;347908;28;809;-71
2023/03/18 00:59:54;;;;;;;;;;;;;;;6.42;70.63;100081.53;347742;28;1293;-71
2023/03/18 01:00:06;;;;;;;;;;;;;;;6.42;70.49;100081.53;346489;28;920;-71
2023/03/18 01:00:16;;;;;;;;;;;;;;;6.42;70.57;100081.53;346991;28;3181;-71
2023/03/18 01:00:26;;;;;;;;;;;;;;;6.41;70.53;100087.59;349966;28;3066;-72
2023/03/18 01:00:37;;;;;;;;;;;;;;;6.41;70.52;100077.19;350681;28;807;-72
2023/03/18 01:00:47;;;;;;;;;;;;;;;6.40;70.70;100075.50;349140;28;1222;-72
2023/03/18 01:00:57;;;;;;;;;;;;;;;6.39;70.41;100084.16;350260;28;2631;-72
2023/03/18 01:01:08;;;;;;;;;;;;;;;6.38;70.62;100082.44;346757;28;4951;-71
2023/03/18 01:01:18;;;;;;;;;;;;;;;6.37;71.07;100075.53;349177;28;1808;-71
2023/03/18 01:01:28;;;;;;;;;;;;;;;6.37;70.69;100081.59;349179;28;907;-73
2023/03/18 01:01:39;;;;;;;;;;;;;;;6.37;70.71;100081.59;349387;28;2011;-72
2023/03/18 01:01:49;;;;;;;;;;;;;;;6.38;70.66;100082.44;348896;28;4971;-72
2023/03/18 01:01:59;;;;;;;;;;;;;;;6.37;70.89;100079.00;350495;28;3217;-72
2023/03/18 01:02:09;;;;;;;;;;;;;;;6.38;70.67;100082.44;350377;28;894;-72
2023/03/18 01:02:20;;;;;;;;;;;;;;;6.37;71.20;100080.72;350465;28;1028;-72
2023/03/18 01:02:30;;;;;;;;;;;;;;;6.36;71.03;100079.03;350108;28;2755;-72
2023/03/18 01:02:41;;;;;;;;;;;;;;;6.36;71.12;100073.81;347484;28;1138;-72
2023/03/18 01:02:52;;;;;;;;;;;;;;;6.37;70.80;100080.72;347864;28;912;-72
2023/03/18 01:03:03;;;;;;;;;;;;;;;6.37;71.01;100085.94;347578;28;1604;-72
2023/03/18 01:03:13;;;;;;;;;;;;;;;6.37;71.08;100075.53;347590;28;894;-73
2023/03/18 01:03:25;;;;;;;;;;;;;;;6.36;70.78;100079.03;346747;28;5017;-72
2023/03/18 01:03:35;;;;;;;;;;;;;;;6.34;70.89;100079.91;349320;28;868;-72
2023/03/18 01:03:46;;;;;;;;;;;;;;;6.33;70.90;100080.78;346465;28;997;-72
2023/03/18 01:03:56;;;;;;;;;;;;;;;6.34;71.22;100081.63;345164;28;1288;-72